Coulee, North Dakota
Current Conditions -  °F | °C
As of 6:55 PM on Wednesday 22 Oct 2014 (Local Time) from K08D Reporting Station
Overcast Overcast  
Wind Chill: 55°   Ceiling: 5000
Heat Index: 55°   Visibility: 10mi
Dew Point: 41°   Wind: 14mph
Humidity: 58%   Direction: 280°W
Pressure: 29.82"   Gusts: 20mph
Location:  48.4598°N, 101.907°W
Report Text: K08D 222355Z AUTO 28012G17KT 10SM OVC050 13/05 A2982 RMK AO2
Loading
Personal Weather Stations






























Interactive Weather Map New forecast layout! Learn more

10-Day Weather Forecast

Advertisements
Track Severe Weather on mobile